Change the Weather History Date:

Friday, November 23, 2012

  Actual Average (KVPZ) Record (KVPZ)
Temperature  
Mean Temperature 41 °F 37 °F  
Max Temperature 50 °F 44 °F 65 °F (2003)
Min Temperature 32 °F 30 °F 15 °F (2008)
Degree Days  
Heating Degree Days 24 28  
Month to date heating degree days 519  
Since 1 July heating degree days 1049  
Cooling Degree Days 0 0  
Month to date cooling degree days 0  
Year to date cooling degree days 713  
Moisture  
Dew Point 25 °F    
Average Humidity 67    
Maximum Humidity 81    
Minimum Humidity 60    
Precipitation  
Precipitation 0.00 in 0.10 in 1.22 in (2014)
Month to date precipitation 2.62  
Year to date precipitation 34.62  
Sea Level Pressure  
Sea Level Pressure 30.02 in    
Wind  
Wind Speed 14 mph ()    
Max Wind Speed 21 mph    
Max Gust Speed 34 mph    
Visibility 10.0 miles    
Events      
T = Trace of Precipitation, MM = Missing Value Source: Averaged Metar Reports

Daily Weather History Graph

Daily Weather History Graph

Search for Another Location

Airport or City:

Trip Planner

Search our weather history database for the weather conditions in past years. The results will help you decide how hot, cold, wet, or windy it might be!

Date:

Astronomy

Nov. 23, 2012 Rise Set
Actual Time 6:46 AM CST 4:20 PM CST
Civil Twilight 6:16 AM CST 4:51 PM CST
Nautical Twilight 5:41 AM CST 5:25 PM CST
Astronomical Twilight 5:08 AM CST 5:58 PM CST
Moon 1:38 PM CST (11/23) 2:01 AM CST (11/23)
Length of Visible Light 10h 35m
Length of Day
9h 34m
Waxing Gibbous, 80% of the Moon is Illuminated
Nov 23
Waxing Gibbous
Nov 28
Full
Dec 6
Last Quarter
Dec 13
New
Dec 19
First Quarter

Hourly Weather History & Observations

Time (CST) Temp. Windchill Dew Point Humidity Pressure Visibility Wind Dir Wind Speed Gust Speed Precip Events Conditions
12:15 AM 50.0 °F - 42.8 °F 76% 29.83 in 10.0 mi West 11.5 mph 26.5 mph N/A   Mostly Cloudy
12:35 AM 48.2 °F - 39.2 °F 71% 29.85 in 10.0 mi West 17.3 mph 25.3 mph N/A   Clear
12:55 AM 44.6 °F 37.8 °F 37.4 °F 76% 29.86 in 10.0 mi West 15.0 mph 26.5 mph N/A   Clear
1:15 AM 44.6 °F 37.2 °F 35.6 °F 71% 29.87 in 10.0 mi West 17.3 mph 26.5 mph N/A   Scattered Clouds
1:35 AM 42.8 °F 35.8 °F 35.6 °F 76% 29.88 in 10.0 mi West 13.8 mph 20.7 mph N/A   Scattered Clouds
1:55 AM 42.8 °F 35.1 °F 33.8 °F 70% 29.89 in 10.0 mi West 16.1 mph 24.2 mph N/A   Scattered Clouds
2:15 AM 41.0 °F 32.5 °F 32.0 °F 70% 29.90 in 10.0 mi West 17.3 mph 29.9 mph N/A   Clear
2:35 AM 39.2 °F 31.2 °F 32.0 °F 75% 29.90 in 10.0 mi West 13.8 mph 24.2 mph N/A   Clear
2:55 AM 39.2 °F 30.5 °F 33.8 °F 81% 29.90 in 10.0 mi West 16.1 mph 21.9 mph N/A   Mostly Cloudy
3:15 AM 37.4 °F 28.9 °F 32.0 °F 81% 29.90 in 10.0 mi West 13.8 mph 21.9 mph N/A   Mostly Cloudy
3:35 AM 37.4 °F 29.3 °F 32.0 °F 81% 29.89 in 10.0 mi West 12.7 mph 21.9 mph N/A   Overcast
3:55 AM 37.4 °F 28.2 °F 32.0 °F 81% 29.89 in 10.0 mi West 16.1 mph 29.9 mph N/A   Overcast
4:15 AM 37.4 °F 28.9 °F 32.0 °F 81% 29.90 in 10.0 mi West 13.8 mph 21.9 mph N/A   Overcast
4:35 AM 37.4 °F 28.5 °F 32.0 °F 81% 29.90 in 10.0 mi West 15.0 mph 24.2 mph N/A   Overcast
4:55 AM 37.4 °F 28.9 °F 32.0 °F 81% 29.89 in 10.0 mi West 13.8 mph 21.9 mph N/A   Overcast
5:15 AM 39.2 °F 31.6 °F 30.2 °F 70% 29.89 in 10.0 mi West 12.7 mph 31.1 mph N/A   Overcast
5:35 AM 37.4 °F 29.3 °F 32.0 °F 81% 29.89 in 10.0 mi West 12.7 mph 26.5 mph N/A   Overcast
5:55 AM 37.4 °F 28.5 °F 30.2 °F 75% 29.89 in 10.0 mi WSW 15.0 mph 32.2 mph N/A   Overcast
6:15 AM 37.4 °F 27.8 °F 30.2 °F 75% 29.89 in 10.0 mi West 17.3 mph 24.2 mph N/A   Overcast
6:35 AM 37.4 °F 27.5 °F 28.4 °F 70% 29.91 in 10.0 mi West 18.4 mph 24.2 mph N/A   Overcast
6:55 AM 37.4 °F 27.5 °F 28.4 °F 70% 29.90 in 10.0 mi West 18.4 mph 28.8 mph N/A   Overcast
7:15 AM 37.4 °F 28.9 °F 28.4 °F 70% 29.91 in 10.0 mi West 13.8 mph 23.0 mph N/A   Overcast
7:35 AM 37.4 °F 28.2 °F 26.6 °F 65% 29.92 in 10.0 mi West 16.1 mph 27.6 mph N/A   Overcast
7:55 AM 35.6 °F 27.1 °F 26.6 °F 70% 29.92 in 10.0 mi West 12.7 mph 25.3 mph N/A   Overcast
8:15 AM 35.6 °F 25.5 °F 24.8 °F 65% 29.93 in 10.0 mi West 17.3 mph 34.5 mph N/A   Overcast
8:35 AM 35.6 °F 25.2 °F 24.8 °F 65% 29.94 in 10.0 mi West 18.4 mph 28.8 mph N/A   Overcast
8:55 AM 35.6 °F 24.8 °F 24.8 °F 65% 29.94 in 10.0 mi West 19.6 mph 29.9 mph N/A   Overcast
9:15 AM 33.8 °F 23.2 °F 24.8 °F 70% 29.96 in 10.0 mi WNW 17.3 mph 29.9 mph N/A   Overcast
9:35 AM 32.0 °F 20.1 °F 21.2 °F 64% 29.97 in 10.0 mi WNW 19.6 mph 32.2 mph N/A   Overcast
9:55 AM 32.0 °F 19.8 °F 21.2 °F 64% 29.99 in 10.0 mi WNW 20.7 mph 29.9 mph N/A   Overcast
10:15 AM 32.0 °F 20.1 °F 19.4 °F 60% 30.00 in 10.0 mi WNW 19.6 mph 27.6 mph N/A   Overcast
10:35 AM 32.0 °F 22.5 °F 19.4 °F 60% 30.00 in 10.0 mi WNW 12.7 mph 25.3 mph N/A   Overcast
11:15 AM 32.0 °F 21.6 °F 19.4 °F 60% 30.01 in 10.0 mi WNW 15.0 mph 31.1 mph N/A   Overcast
11:35 AM 32.0 °F 21.6 °F 19.4 °F 60% 30.00 in 10.0 mi West 15.0 mph 26.5 mph N/A   Overcast
11:55 AM 32.0 °F 20.5 °F 19.4 °F 60% 30.01 in 10.0 mi WNW 18.4 mph 29.9 mph N/A   Overcast
12:15 PM 32.0 °F 20.1 °F 19.4 °F 60% 30.02 in 10.0 mi WNW 19.6 mph 31.1 mph N/A   Overcast
12:35 PM 32.0 °F 20.5 °F 19.4 °F 60% 30.02 in 10.0 mi WNW 18.4 mph 26.5 mph N/A   Overcast
12:55 PM 32.0 °F 20.5 °F 19.4 °F 60% 30.03 in 10.0 mi WNW 18.4 mph 24.2 mph N/A   Overcast
1:15 PM 32.0 °F 22.5 °F 19.4 °F 60% 30.04 in 10.0 mi WNW 12.7 mph 27.6 mph N/A   Overcast
1:35 PM 32.0 °F 22.1 °F 19.4 °F 60% 30.04 in 10.0 mi WNW 13.8 mph 26.5 mph N/A   Overcast
1:55 PM 32.0 °F 21.6 °F 19.4 °F 60% 30.05 in 10.0 mi WNW 15.0 mph 26.5 mph N/A   Overcast
2:15 PM 32.0 °F 21.6 °F 19.4 °F 60% 30.06 in 10.0 mi WNW 15.0 mph 23.0 mph N/A   Overcast
2:35 PM 32.0 °F 20.5 °F 19.4 °F 60% 30.07 in 10.0 mi WNW 18.4 mph 26.5 mph N/A   Overcast
2:55 PM 32.0 °F 20.5 °F 19.4 °F 60% 30.08 in 10.0 mi WNW 18.4 mph 29.9 mph N/A   Overcast
3:15 PM 32.0 °F 20.8 °F 19.4 °F 60% 30.09 in 10.0 mi WNW 17.3 mph 25.3 mph N/A   Overcast
3:35 PM 32.0 °F 22.1 °F 19.4 °F 60% 30.10 in 10.0 mi WNW 13.8 mph 23.0 mph N/A   Overcast
3:55 PM 32.0 °F 21.6 °F 19.4 °F 60% 30.11 in 10.0 mi West 15.0 mph 26.5 mph N/A   Overcast
4:15 PM 32.0 °F 21.6 °F 19.4 °F 60% 30.11 in 10.0 mi WNW 15.0 mph 26.5 mph N/A   Overcast
4:35 PM 32.0 °F 21.6 °F 19.4 °F 60% 30.12 in 10.0 mi WNW 15.0 mph 21.9 mph N/A   Overcast
4:55 PM 32.0 °F 22.5 °F 19.4 °F 60% 30.12 in 10.0 mi WNW 12.7 mph 20.7 mph N/A   Overcast
5:15 PM 32.0 °F 22.5 °F 21.2 °F 64% 30.13 in 10.0 mi WNW 12.7 mph 19.6 mph N/A   Overcast
5:35 PM 32.0 °F 23.0 °F 21.2 °F 64% 30.14 in 10.0 mi WNW 11.5 mph 25.3 mph N/A   Overcast
5:55 PM 32.0 °F 22.1 °F 19.4 °F 60% 30.14 in 10.0 mi WNW 13.8 mph 25.3 mph N/A   Overcast
6:15 PM 32.0 °F 20.8 °F 21.2 °F 64% 30.15 in 10.0 mi WNW 17.3 mph 24.2 mph N/A   Overcast
6:35 PM 32.0 °F 22.1 °F 21.2 °F 64% 30.15 in 10.0 mi WNW 13.8 mph 24.2 mph N/A   Overcast
6:55 PM 32.0 °F 24.2 °F 21.2 °F 64% 30.16 in 10.0 mi NW 9.2 mph 19.6 mph N/A   Overcast
7:15 PM 32.0 °F 23.6 °F 21.2 °F 64% 30.16 in 10.0 mi NW 10.4 mph 19.6 mph N/A   Overcast
7:35 PM 32.0 °F 22.1 °F 21.2 °F 64% 30.16 in 10.0 mi WNW 13.8 mph 23.0 mph N/A   Overcast
7:55 PM 32.0 °F 22.1 °F 21.2 °F 64% 30.17 in 10.0 mi NW 13.8 mph 27.6 mph N/A   Overcast
8:15 PM 32.0 °F 22.1 °F 21.2 °F 64% 30.17 in 10.0 mi WNW 13.8 mph 21.9 mph N/A   Overcast
8:35 PM 32.0 °F 24.8 °F 21.2 °F 64% 30.17 in 10.0 mi NW 8.1 mph 16.1 mph N/A   Overcast
8:55 PM 32.0 °F 22.5 °F 21.2 °F 64% 30.17 in 10.0 mi WNW 12.7 mph 21.9 mph N/A   Overcast
9:15 PM 32.0 °F 23.6 °F 21.2 °F 64% 30.17 in 10.0 mi NW 10.4 mph 21.9 mph N/A   Overcast
9:35 PM 32.0 °F 22.5 °F 21.2 °F 64% 30.17 in 10.0 mi NNW 12.7 mph 25.3 mph N/A   Overcast
9:55 PM 32.0 °F 22.5 °F 21.2 °F 64% 30.17 in 10.0 mi NW 12.7 mph 20.7 mph N/A   Overcast
10:15 PM 32.0 °F 23.0 °F 21.2 °F 64% 30.16 in 10.0 mi NW 11.5 mph 23.0 mph N/A   Overcast
10:35 PM 32.0 °F 24.8 °F 23.0 °F 69% 30.16 in 10.0 mi NW 8.1 mph - N/A   Overcast
10:55 PM 32.0 °F 23.0 °F 23.0 °F 69% 30.17 in 10.0 mi NW 11.5 mph 21.9 mph N/A   Overcast
11:15 PM 32.0 °F 24.2 °F 21.2 °F 64% 30.17 in 10.0 mi NW 9.2 mph 17.3 mph N/A   Overcast
11:35 PM 32.0 °F 24.8 °F 23.0 °F 69% 30.16 in 10.0 mi NW 8.1 mph 17.3 mph N/A   Overcast
11:55 PM 32.0 °F 24.2 °F 23.0 °F 69% 30.16 in 10.0 mi NNW 9.2 mph - N/A   Overcast